createdAt,value
2018-01-05T00:01:28.130Z,12.47
2018-01-05T00:03:55.764Z,10.43
2018-01-05T00:06:24.145Z,15.80
2018-01-05T00:08:51.713Z,12.47
2018-01-05T00:11:19.580Z,14.30
2018-01-05T00:13:47.133Z,10.77
2018-01-05T00:16:14.658Z,10.70
2018-01-05T00:18:42.148Z,16.97
2018-01-05T00:21:09.701Z,20.53
2018-01-05T00:23:37.694Z,12.23
2018-01-05T00:26:05.236Z,9.70
2018-01-05T00:28:32.865Z,20.40
2018-01-05T00:31:00.886Z,9.33
2018-01-05T00:33:30.692Z,9.50
2018-01-05T00:35:59.422Z,11.23
2018-01-05T00:38:27.043Z,11.57
2018-01-05T00:40:56.561Z,12.57
2018-01-05T00:43:25.416Z,8.93
2018-01-05T00:45:53.611Z,11.70
2018-01-05T00:48:21.290Z,10.63
2018-01-05T00:50:48.836Z,12.67
2018-01-05T00:53:17.051Z,8.80
2018-01-05T00:55:44.600Z,9.03
2018-01-05T00:58:12.857Z,12.13
2018-01-05T01:00:42.872Z,7.90
2018-01-05T01:03:10.503Z,10.17
2018-01-05T01:05:38.369Z,6.00
2018-01-05T01:08:06.743Z,8.80
2018-01-05T01:10:34.885Z,21.07
2018-01-05T01:13:02.462Z,13.10
2018-01-05T01:15:30.857Z,11.77
2018-01-05T01:17:59.636Z,9.20
2018-01-05T01:20:28.288Z,9.10
2018-01-05T01:23:01.027Z,11.00
2018-01-05T01:25:28.872Z,14.43
2018-01-05T01:27:57.269Z,9.40
2018-01-05T01:30:24.843Z,11.63
2018-01-05T01:32:52.424Z,11.10
2018-01-05T01:35:20.427Z,15.43
2018-01-05T01:37:48.062Z,10.83
2018-01-05T01:40:15.692Z,12.40
2018-01-05T01:42:43.265Z,12.50
2018-01-05T01:45:10.824Z,12.70
2018-01-05T01:47:40.452Z,8.93
2018-01-05T01:50:08.138Z,8.80
2018-01-05T01:52:36.161Z,9.07
2018-01-05T01:55:03.699Z,11.10
2018-01-05T01:57:32.833Z,10.70
2018-01-05T02:00:01.013Z,6.97
2018-01-05T02:02:32.664Z,11.13
2018-01-05T02:05:03.409Z,18.87
2018-01-05T02:07:33.244Z,11.03
2018-01-05T02:10:04.118Z,12.90
2018-01-05T02:12:34.010Z,10.47
2018-01-05T02:15:01.688Z,8.83
2018-01-05T02:17:30.243Z,15.30
2018-01-05T02:19:58.941Z,11.73
2018-01-05T02:22:26.818Z,14.37
2018-01-05T02:24:54.360Z,18.60
2018-01-05T02:27:23.138Z,13.33
2018-01-05T02:29:50.629Z,8.60
2018-01-05T02:32:18.387Z,13.60
2018-01-05T02:34:45.914Z,6.07
2018-01-05T02:37:14.343Z,9.27
2018-01-05T02:39:42.464Z,8.90
2018-01-05T02:42:10.038Z,8.17
2018-01-05T02:44:38.559Z,11.50
2018-01-05T02:47:06.672Z,7.50
2018-01-05T02:49:34.267Z,8.83
2018-01-05T02:52:02.269Z,7.97
2018-01-05T02:54:31.848Z,7.87
2018-01-05T02:56:59.699Z,8.20
2018-01-05T02:59:27.265Z,14.77
2018-01-05T03:01:54.802Z,6.97
2018-01-05T03:04:23.307Z,9.23
2018-01-05T03:06:51.110Z,8.67
2018-01-05T03:09:18.649Z,8.30
2018-01-05T03:11:46.255Z,6.77
2018-01-05T03:14:13.801Z,7.87
2018-01-05T03:16:42.241Z,5.57
2018-01-05T03:19:11.818Z,10.43
2018-01-05T03:21:39.413Z,6.83
2018-01-05T03:24:07.065Z,11.80
2018-01-05T03:26:35.288Z,8.73
2018-01-05T03:29:03.748Z,7.10
2018-01-05T03:31:32.688Z,8.43
2018-01-05T03:34:00.245Z,8.17
2018-01-05T03:36:28.134Z,7.67
2018-01-05T03:38:56.340Z,8.53
2018-01-05T03:41:24.146Z,7.73
2018-01-05T03:43:54.224Z,10.00
2018-01-05T03:46:21.806Z,6.20
2018-01-05T03:48:50.283Z,12.43
2018-01-05T03:51:17.785Z,10.73
2018-01-05T03:53:46.060Z,10.37
2018-01-05T03:56:13.620Z,4.33
2018-01-05T03:58:41.165Z,14.57
2018-01-05T04:01:08.690Z,8.37
2018-01-05T04:03:36.912Z,6.80
2018-01-05T04:06:05.344Z,8.93
2018-01-05T04:08:33.760Z,7.90
2018-01-05T04:11:02.701Z,12.07
2018-01-05T04:13:35.062Z,13.90
2018-01-05T04:16:07.334Z,17.10
2018-01-05T04:18:37.539Z,8.00
2018-01-05T04:21:06.945Z,11.70
2018-01-05T04:23:35.487Z,7.70
2018-01-05T04:26:04.211Z,9.07
2018-01-05T04:28:31.735Z,10.30
2018-01-05T04:30:59.599Z,9.50
2018-01-05T04:33:27.432Z,8.63
2018-01-05T04:35:55.409Z,9.50
2018-01-05T04:38:23.128Z,13.60
2018-01-05T04:40:51.661Z,7.57
2018-01-05T04:43:21.166Z,8.30
2018-01-05T04:45:48.782Z,9.00
2018-01-05T04:48:17.305Z,6.47
2018-01-05T04:50:44.841Z,6.97
2018-01-05T04:53:12.970Z,4.00
2018-01-05T04:55:42.585Z,5.50
2018-01-05T04:58:11.025Z,4.63
2018-01-05T05:00:38.578Z,4.67
2018-01-05T05:03:07.815Z,5.40
2018-01-05T05:05:36.140Z,2.30
2018-01-05T05:08:03.760Z,6.67
2018-01-05T05:10:32.595Z,11.03
2018-01-05T05:13:01.734Z,4.70
2018-01-05T05:15:29.591Z,4.30
2018-01-05T05:17:57.164Z,4.63
2018-01-05T05:20:24.673Z,8.73
2018-01-05T05:22:53.432Z,6.90
2018-01-05T05:25:21.198Z,6.17
2018-01-05T05:27:48.829Z,6.93
2018-01-05T05:30:17.200Z,3.33
2018-01-05T05:32:45.016Z,4.93
2018-01-05T05:35:12.871Z,4.80
2018-01-05T05:37:41.101Z,3.63
2018-01-05T05:40:08.811Z,4.83
2018-01-05T05:42:38.599Z,4.70
2018-01-05T05:45:08.963Z,4.00
2018-01-05T05:47:39.819Z,4.23
2018-01-05T05:50:11.700Z,3.27
2018-01-05T05:52:39.196Z,4.83
2018-01-05T05:55:08.295Z,4.77
2018-01-05T05:57:37.617Z,4.60
2018-01-05T06:00:05.137Z,5.40
2018-01-05T06:02:33.776Z,4.30
2018-01-05T06:05:01.253Z,2.30
2018-01-05T06:07:28.842Z,7.23
2018-01-05T06:09:56.676Z,4.47
2018-01-05T06:12:26.212Z,4.77
2018-01-05T06:14:55.520Z,3.10
2018-01-05T06:17:23.854Z,6.03
2018-01-05T06:19:55.018Z,2.17
2018-01-05T06:22:22.753Z,10.07
2018-01-05T06:24:51.950Z,4.87
2018-01-05T06:27:19.431Z,2.43
2018-01-05T06:29:46.886Z,5.13
2018-01-05T06:32:14.363Z,3.10
2018-01-05T06:34:41.889Z,4.27
2018-01-05T06:37:09.691Z,5.13
2018-01-05T06:39:37.209Z,4.80
2018-01-05T06:42:04.719Z,4.77
2018-01-05T06:44:32.279Z,2.20
2018-01-05T06:46:59.768Z,5.07
2018-01-05T06:49:27.240Z,3.53
2018-01-05T06:51:54.727Z,3.30
2018-01-05T06:54:22.261Z,5.37
2018-01-05T06:56:49.816Z,4.43
2018-01-05T06:59:17.315Z,4.77
2018-01-05T07:01:44.925Z,4.07
2018-01-05T07:04:13.521Z,4.00
2018-01-05T07:06:42.034Z,2.50
2018-01-05T07:09:09.992Z,3.07
2018-01-05T07:11:37.532Z,5.93
2018-01-05T07:14:05.126Z,2.70
2018-01-05T07:16:32.676Z,6.60
2018-01-05T07:19:00.225Z,9.63
2018-01-05T07:21:30.196Z,8.20
2018-01-05T07:23:58.120Z,6.67
2018-01-05T07:26:25.652Z,8.03
2018-01-05T07:28:53.568Z,2.97
2018-01-05T07:31:23.669Z,5.33
2018-01-05T07:33:51.281Z,5.87
2018-01-05T07:36:18.842Z,4.80
2018-01-05T07:38:46.416Z,7.90
2018-01-05T07:41:13.940Z,5.00
2018-01-05T07:43:41.890Z,6.40
2018-01-05T07:46:17.769Z,3.20
2018-01-05T07:48:49.503Z,5.17
2018-01-05T07:54:21.955Z,5.60
2018-01-05T07:56:50.084Z,4.57
2018-01-05T07:59:21.045Z,3.43
2018-01-05T08:01:48.880Z,5.13
2018-01-05T08:04:16.670Z,3.97
2018-01-05T08:06:44.241Z,5.87
2018-01-05T08:09:12.556Z,14.20
2018-01-05T08:11:41.055Z,8.23
2018-01-05T08:14:10.105Z,7.23
2018-01-05T08:16:37.637Z,8.23
2018-01-05T08:19:05.291Z,3.23
2018-01-05T08:21:50.081Z,3.43
2018-01-05T08:24:17.646Z,8.23
2018-01-05T08:26:45.139Z,2.30
2018-01-05T08:29:13.516Z,3.27
2018-01-05T08:31:53.576Z,5.73
2018-01-05T08:34:21.072Z,2.50
2018-01-05T08:36:48.714Z,5.00
2018-01-05T08:39:16.286Z,4.47
2018-01-05T08:41:45.260Z,5.87
2018-01-05T08:44:13.520Z,5.80
2018-01-05T08:46:44.643Z,3.17
2018-01-05T08:49:12.230Z,4.80
2018-01-05T08:51:39.825Z,1.90
2018-01-05T08:54:07.409Z,3.43
2018-01-05T08:56:35.068Z,3.80
2018-01-05T08:59:02.704Z,3.07
2018-01-05T09:01:30.218Z,6.03
2018-01-05T09:03:57.774Z,3.47
2018-01-05T09:06:25.364Z,4.23
2018-01-05T09:08:52.873Z,1.07
2018-01-05T09:11:20.488Z,2.70
2018-01-05T09:13:48.079Z,2.90
2018-01-05T09:16:16.527Z,3.60
2018-01-05T09:18:44.378Z,4.33
2018-01-05T09:21:11.934Z,1.10
2018-01-05T09:23:39.455Z,2.03
2018-01-05T09:26:07.016Z,3.10
2018-01-05T09:28:34.472Z,4.83
2018-01-05T09:31:01.993Z,1.17
2018-01-05T09:33:29.574Z,1.83
2018-01-05T09:35:57.083Z,3.33
2018-01-05T09:38:24.613Z,3.13
2018-01-05T09:40:52.060Z,1.40
2018-01-05T09:43:36.322Z,2.10
2018-01-05T09:46:03.879Z,2.50
2018-01-05T09:48:33.465Z,2.07
2018-01-05T09:51:02.612Z,2.03
2018-01-05T09:53:30.168Z,1.83
2018-01-05T09:56:03.023Z,4.00
2018-01-05T09:58:30.846Z,3.07
2018-01-05T10:05:18.196Z,1.67
2018-01-05T10:07:46.451Z,3.07
2018-01-05T10:10:16.629Z,5.37
2018-01-05T10:12:56.967Z,4.03
2018-01-05T10:21:03.396Z,3.33
2018-01-05T10:23:34.188Z,3.63
2018-01-05T10:26:40.677Z,4.50
2018-01-05T10:32:31.724Z,4.10
2018-01-05T10:48:05.264Z,5.03
2018-01-05T10:56:36.455Z,2.83
2018-01-05T10:59:06.959Z,3.87
2018-01-05T11:13:15.241Z,2.10
2018-01-05T11:28:05.863Z,4.03
2018-01-05T11:33:37.556Z,4.63
2018-01-05T11:36:08.431Z,3.00
2018-01-05T12:45:16.025Z,3.53
2018-01-05T12:47:43.486Z,2.03
2018-01-05T12:50:10.955Z,1.50
2018-01-05T12:52:38.900Z,1.90
2018-01-05T12:55:06.380Z,2.87
2018-01-05T12:57:34.256Z,3.13
2018-01-05T13:00:01.742Z,2.30
2018-01-05T13:02:53.118Z,1.73
2018-01-05T13:08:04.342Z,1.73
2018-01-05T13:10:32.009Z,2.20
2018-01-05T13:13:07.956Z,2.23
2018-01-05T13:24:46.645Z,4.20
2018-01-05T14:16:44.621Z,7.93
2018-01-05T14:19:12.183Z,11.87
2018-01-05T14:41:42.694Z,4.80
2018-01-05T14:44:10.226Z,7.20
2018-01-05T14:46:46.202Z,6.17
2018-01-05T15:07:24.705Z,6.10
2018-01-05T15:24:46.076Z,3.47
2018-01-05T15:33:09.606Z,5.03
2018-01-05T15:35:37.139Z,6.53
2018-01-05T15:38:06.543Z,4.27
2018-01-05T15:40:38.558Z,5.67
2018-01-05T15:43:06.151Z,3.63
2018-01-05T15:45:34.769Z,4.00
2018-01-05T15:48:05.989Z,5.93
2018-01-05T15:50:33.485Z,5.63
2018-01-05T15:55:54.422Z,5.77
2018-01-05T15:58:23.220Z,3.97
2018-01-05T16:00:51.602Z,4.10
2018-01-05T16:06:12.397Z,2.80
2018-01-05T16:08:40.213Z,3.43
2018-01-05T16:11:07.929Z,3.00
2018-01-05T16:13:35.415Z,2.60
2018-01-05T16:16:03.104Z,3.13
2018-01-05T16:18:31.114Z,2.10
2018-01-05T16:20:58.712Z,1.63
2018-01-05T16:23:28.092Z,3.30
2018-01-05T16:25:56.447Z,4.60
2018-01-05T16:28:27.404Z,2.40
2018-01-05T16:30:55.894Z,1.70
2018-01-05T16:33:23.411Z,1.87
2018-01-05T16:35:51.865Z,2.57
2018-01-05T16:38:19.609Z,3.10
2018-01-05T16:40:47.508Z,1.70
2018-01-05T16:43:15.079Z,2.30
2018-01-05T16:45:42.589Z,2.87
2018-01-05T16:48:10.094Z,1.50
2018-01-05T16:50:37.717Z,3.53
2018-01-05T16:53:05.214Z,3.47
2018-01-05T16:55:33.354Z,5.30
2018-01-05T16:58:04.109Z,2.83
2018-01-05T17:35:29.564Z,7.20
2018-01-05T17:37:57.788Z,6.87
2018-01-05T17:40:25.764Z,6.10
2018-01-05T17:42:53.287Z,6.97
2018-01-05T17:45:20.764Z,7.70
2018-01-05T17:47:48.516Z,13.93
2018-01-05T17:50:16.024Z,11.73
2018-01-05T17:52:43.512Z,11.97
2018-01-05T17:55:11.046Z,17.93
2018-01-05T17:57:38.548Z,16.00
2018-01-05T18:00:06.043Z,13.27
2018-01-05T18:02:33.506Z,13.17
2018-01-05T18:05:01.292Z,11.17
2018-01-05T18:07:28.987Z,11.53
2018-01-05T18:09:56.557Z,10.53
2018-01-05T18:12:24.060Z,12.67
2018-01-05T18:14:52.223Z,11.90
2018-01-05T18:17:19.716Z,9.00
2018-01-05T18:19:47.195Z,10.97
2018-01-05T18:22:14.680Z,9.23
2018-01-05T18:24:46.273Z,10.17
2018-01-05T19:25:35.843Z,12.30
2018-01-05T19:28:04.988Z,11.43
2018-01-05T19:30:32.508Z,14.50
2018-01-05T19:33:00.707Z,14.90
2018-01-05T19:35:28.256Z,16.63
2018-01-05T19:37:55.755Z,19.20
2018-01-05T19:40:23.377Z,16.10
2018-01-05T19:42:50.975Z,17.67
2018-01-05T19:45:20.363Z,17.80
2018-01-05T19:47:47.851Z,18.80
2018-01-05T19:50:16.728Z,20.37
2018-01-05T19:52:47.425Z,18.47
2018-01-05T19:55:15.356Z,18.77
2018-01-05T19:57:44.852Z,18.87
2018-01-05T20:00:25.901Z,19.00
2018-01-05T20:02:55.488Z,16.30
2018-01-05T20:05:23.039Z,13.60
2018-01-05T20:07:50.564Z,14.80
2018-01-05T20:10:18.365Z,14.10
2018-01-05T20:12:51.479Z,14.60
2018-01-05T20:15:19.189Z,14.97
2018-01-05T20:17:46.710Z,13.07
2018-01-05T20:20:15.902Z,10.90
2018-01-05T20:22:43.398Z,12.83
2018-01-05T20:25:10.999Z,18.53
2018-01-05T20:27:39.736Z,36.90
2018-01-05T20:30:08.734Z,23.73
2018-01-05T20:32:37.569Z,19.80
2018-01-05T20:37:44.038Z,21.60
2018-01-05T21:11:58.739Z,15.03
2018-01-05T21:14:26.838Z,13.80
2018-01-05T21:16:56.272Z,12.60
2018-01-05T21:19:23.801Z,11.23
2018-01-05T21:21:53.169Z,10.90
2018-01-05T21:24:22.247Z,22.37
2018-01-05T21:26:52.076Z,11.97
2018-01-05T21:29:22.934Z,12.40
2018-01-05T21:31:52.796Z,12.87
2018-01-05T21:34:39.806Z,14.13
2018-01-05T21:37:08.523Z,12.20
2018-01-05T21:39:36.035Z,10.50
2018-01-05T21:42:04.601Z,12.80
2018-01-05T21:44:32.263Z,14.67
2018-01-05T21:46:59.751Z,11.70
2018-01-05T21:49:28.695Z,12.07
2018-01-05T21:51:56.475Z,12.80
2018-01-05T21:54:23.963Z,11.33
2018-01-05T22:02:42.357Z,10.33
2018-01-05T22:05:09.807Z,8.77
2018-01-05T22:07:37.352Z,9.30
2018-01-05T22:10:04.844Z,8.47
2018-01-05T22:12:32.363Z,10.17
2018-01-05T22:15:01.399Z,9.30
2018-01-05T22:17:28.860Z,11.23
2018-01-05T22:19:56.485Z,10.97
2018-01-05T22:22:24.109Z,11.00
2018-01-05T22:24:51.575Z,4.90
2018-01-05T22:27:23.052Z,5.90
2018-01-05T22:29:51.098Z,6.00
2018-01-05T22:32:19.287Z,5.40
2018-01-05T22:34:46.929Z,6.33
2018-01-05T22:37:22.258Z,5.30
2018-01-05T22:39:52.249Z,4.07
2018-01-05T22:42:20.458Z,3.90
2018-01-05T22:44:48.506Z,3.23
2018-01-05T22:47:16.060Z,3.90
2018-01-05T22:49:54.089Z,2.70
2018-01-05T22:52:22.537Z,3.03
2018-01-05T22:54:50.565Z,2.43
2018-01-05T22:57:18.242Z,2.57
2018-01-05T23:05:07.872Z,7.70
2018-01-05T23:07:35.638Z,5.33
2018-01-05T23:10:05.005Z,16.00
2018-01-05T23:36:44.337Z,8.67
2018-01-05T23:39:12.119Z,11.17
2018-01-05T23:41:44.570Z,14.87
2018-01-05T23:47:35.028Z,12.60
2018-01-05T23:50:04.258Z,14.90
2018-01-05T23:52:36.077Z,15.37
2018-01-05T23:55:10.984Z,14.10
